createdAt,value
2023-04-18T00:00:40.058Z,100405.94
2023-04-18T00:03:42.329Z,100398.41
2023-04-18T00:06:44.334Z,100392.91
2023-04-18T00:09:46.087Z,100393.03
2023-04-18T00:12:48.944Z,100390.03
2023-04-18T00:15:54.223Z,100394.62
2023-04-18T00:18:57.220Z,100381.19
2023-04-18T00:21:59.936Z,100391.97
2023-04-18T00:25:01.849Z,100395.59
2023-04-18T00:28:03.764Z,100392.38
2023-04-18T00:31:05.781Z,100377.44
2023-04-18T00:34:07.676Z,100389.81
2023-04-18T00:37:09.611Z,100400.56
2023-04-18T00:40:12.039Z,100396.69
2023-04-18T00:43:14.734Z,100410.69
2023-04-18T00:46:16.692Z,100393.78
2023-04-18T00:49:18.708Z,100392.94
2023-04-18T00:52:20.907Z,100390.03
2023-04-18T00:55:23.009Z,100394.62
2023-04-18T00:58:24.836Z,100389.91
2023-04-18T01:01:27.022Z,100387.97
2023-04-18T01:04:29.045Z,100395.06
2023-04-18T01:07:31.874Z,100392.16
2023-04-18T01:10:33.791Z,100393.06
2023-04-18T01:13:35.607Z,100401.72
2023-04-18T01:16:38.922Z,100397.50
2023-04-18T01:19:41.019Z,100400.03
2023-04-18T01:22:42.929Z,100389.44
2023-04-18T01:25:45.533Z,100406.56
2023-04-18T01:28:47.606Z,100397.84
2023-04-18T01:31:49.452Z,100401.47
2023-04-18T01:34:51.284Z,100406.31
2023-04-18T01:37:53.132Z,100421.03
2023-04-18T01:40:55.073Z,100409.97
2023-04-18T01:43:56.989Z,100399.97
2023-04-18T01:46:58.775Z,100412.56
2023-04-18T01:50:00.985Z,100413.00
2023-04-18T01:53:02.965Z,100401.19
2023-04-18T01:56:04.980Z,100398.09
2023-04-18T01:59:06.801Z,100399.72
2023-04-18T02:02:11.358Z,100394.97
2023-04-18T02:05:13.274Z,100396.59
2023-04-18T02:08:15.247Z,100395.06
2023-04-18T02:11:17.106Z,100399.81
2023-04-18T02:14:18.982Z,100405.50
2023-04-18T02:17:21.599Z,100399.56
2023-04-18T02:20:23.446Z,100396.66
2023-04-18T02:23:25.305Z,100399.56
2023-04-18T02:26:27.168Z,100396.09
2023-04-18T02:29:30.607Z,100403.53
2023-04-18T02:32:32.513Z,100391.50
2023-04-18T02:35:34.403Z,100403.31
2023-04-18T02:38:36.256Z,100404.81
2023-04-18T02:41:39.379Z,100404.81
2023-04-18T02:44:41.157Z,100408.25
2023-04-18T02:47:53.649Z,100402.03
2023-04-18T02:51:05.313Z,100403.09
2023-04-18T02:54:07.126Z,100411.88
2023-04-18T02:57:08.869Z,100400.28
2023-04-18T03:00:11.446Z,100405.66
2023-04-18T03:03:13.391Z,100402.25
2023-04-18T03:06:15.799Z,100398.47
2023-04-18T03:09:17.831Z,100407.16
2023-04-18T03:12:19.736Z,100406.63
2023-04-18T03:15:21.599Z,100400.06
2023-04-18T03:18:23.436Z,100412.53
2023-04-18T03:21:25.643Z,100414.16
2023-04-18T03:24:27.465Z,100414.06
2023-04-18T03:27:29.236Z,100421.91
2023-04-18T03:30:31.370Z,100417.38
2023-04-18T03:33:33.178Z,100417.47
2023-04-18T03:36:34.949Z,100421.22
2023-04-18T03:39:36.772Z,100422.12
2023-04-18T03:42:38.581Z,100429.28
2023-04-18T03:45:40.758Z,100416.53
2023-04-18T03:48:42.570Z,100422.63
2023-04-18T03:51:49.483Z,100430.16
2023-04-18T03:54:51.573Z,100429.91
2023-04-18T03:57:53.326Z,100431.31
2023-04-18T04:00:55.121Z,100431.97
2023-04-18T04:03:56.971Z,100422.53
2023-04-18T04:06:59.264Z,100435.53
2023-04-18T04:10:01.383Z,100439.38
2023-04-18T04:13:03.373Z,100443.03
2023-04-18T04:16:05.730Z,100443.25
2023-04-18T04:19:07.654Z,100441.06
2023-04-18T04:22:09.616Z,100448.62
2023-04-18T04:25:13.845Z,100444.09
2023-04-18T04:28:16.017Z,100449.47
2023-04-18T04:31:18.782Z,100456.56
2023-04-18T04:34:21.577Z,100455.06
2023-04-18T04:37:23.861Z,100465.81
2023-04-18T04:40:25.758Z,100461.28
2023-04-18T04:43:28.861Z,100461.06
2023-04-18T04:46:31.165Z,100470.97
2023-04-18T04:49:32.986Z,100458.03
2023-04-18T04:52:34.990Z,100472.69
2023-04-18T04:55:38.589Z,100464.53
2023-04-18T04:58:40.551Z,100473.34
2023-04-18T05:01:42.434Z,100482.06
2023-04-18T05:04:44.272Z,100471.97
2023-04-18T05:07:47.038Z,100477.34
2023-04-18T05:10:50.122Z,100478.75
2023-04-18T05:13:52.561Z,100476.72
2023-04-18T05:16:55.898Z,100481.03
2023-04-18T05:19:57.936Z,100477.69
2023-04-18T05:23:00.226Z,100485.72
2023-04-18T05:26:06.134Z,100487.22
2023-04-18T05:29:08.341Z,100480.13
2023-04-18T05:32:10.721Z,100484.94
2023-04-18T05:35:13.057Z,100485.28
2023-04-18T05:38:15.476Z,100477.87
2023-04-18T05:41:17.574Z,100488.53
2023-04-18T05:44:20.163Z,100482.94
2023-04-18T05:47:26.811Z,100481.88
2023-04-18T05:50:28.712Z,100482.50
2023-04-18T05:53:30.573Z,100489.94
2023-04-18T05:56:32.508Z,100481.31
2023-04-18T05:59:34.306Z,100493.59
2023-04-18T06:02:36.792Z,100491.63
2023-04-18T06:05:38.749Z,100492.62
2023-04-18T06:08:40.910Z,100500.38
2023-04-18T06:11:42.695Z,100494.78
2023-04-18T06:14:44.520Z,100499.81
2023-04-18T06:17:46.349Z,100471.66
2023-04-18T06:20:48.249Z,100481.00
2023-04-18T06:23:50.262Z,100479.91
2023-04-18T06:26:52.149Z,100479.91
2023-04-18T06:29:55.010Z,100485.09
2023-04-18T06:32:57.024Z,100503.69
2023-04-18T06:35:59.212Z,100494.00
2023-04-18T06:39:01.258Z,100490.16
2023-04-18T06:42:04.802Z,100493.56
2023-04-18T06:45:07.321Z,100497.38
2023-04-18T06:48:10.710Z,100486.38
2023-04-18T06:51:12.841Z,100493.69
2023-04-18T06:54:14.853Z,100491.75
2023-04-18T06:57:16.934Z,100484.31
2023-04-18T07:00:19.106Z,100496.72
2023-04-18T07:03:21.008Z,100495.63
2023-04-18T07:06:22.893Z,100495.72
2023-04-18T07:09:24.868Z,100493.25
2023-04-18T07:12:27.569Z,100518.75
2023-04-18T07:15:29.455Z,100536.75
2023-04-18T07:18:37.907Z,100535.53
2023-04-18T07:21:42.605Z,100542.44
2023-04-18T07:24:44.693Z,100521.66
2023-04-18T07:27:46.506Z,100528.87
2023-04-18T07:30:48.405Z,100538.34
2023-04-18T07:33:51.137Z,100535.56
2023-04-18T07:36:53.048Z,100537.78
2023-04-18T07:39:54.903Z,100532.28
2023-04-18T07:42:56.844Z,100533.09
2023-04-18T07:45:59.129Z,100527.81
2023-04-18T07:49:02.391Z,100532.50
2023-04-18T07:52:04.645Z,100541.66
2023-04-18T07:55:07.157Z,100531.28
2023-04-18T07:58:09.695Z,100541.78
2023-04-18T08:01:15.197Z,100551.97
2023-04-18T08:04:17.129Z,100536.59
2023-04-18T08:07:18.991Z,100538.22
2023-04-18T08:10:22.456Z,100540.72
2023-04-18T08:13:25.467Z,100533.91
2023-04-18T08:16:27.742Z,100529.16
2023-04-18T08:19:29.732Z,100525.37
2023-04-18T08:22:31.886Z,100459.62
2023-04-18T08:25:33.694Z,100490.16
2023-04-18T08:28:35.573Z,100489.97
2023-04-18T08:31:39.011Z,100454.28
2023-04-18T08:34:40.969Z,100456.12
2023-04-18T08:37:43.441Z,100471.22
2023-04-18T08:40:45.985Z,100474.28
2023-04-18T08:43:48.986Z,100456.34
2023-04-18T08:46:50.864Z,100462.12
2023-04-18T08:49:53.735Z,100461.75
2023-04-18T08:52:56.109Z,100442.97
2023-04-18T08:56:00.314Z,100445.84
2023-04-18T08:59:02.786Z,100457.03
2023-04-18T09:02:06.499Z,100489.19
2023-04-18T09:05:12.381Z,100460.37
2023-04-18T09:08:24.369Z,100487.13
2023-04-18T09:11:29.839Z,100447.63
2023-04-18T09:14:32.680Z,100434.06
2023-04-18T09:17:43.915Z,100428.75
2023-04-18T09:20:47.665Z,100439.78
2023-04-18T09:23:50.468Z,100446.84
2023-04-18T09:26:56.027Z,100433.09
2023-04-18T09:30:01.658Z,100451.16
2023-04-18T09:33:12.739Z,100447.63
2023-04-18T09:36:18.247Z,100427.25
2023-04-18T09:39:28.932Z,100435.53
2023-04-18T09:42:39.982Z,100433.09
2023-04-18T09:45:42.396Z,100426.16
2023-04-18T09:48:46.352Z,100404.81
2023-04-18T09:51:53.841Z,100406.91
2023-04-18T09:54:58.803Z,100386.47
2023-04-18T09:58:04.028Z,100425.59
2023-04-18T10:01:06.374Z,100370.56
2023-04-18T10:04:09.168Z,100399.87
2023-04-18T10:07:11.736Z,100388.00
2023-04-18T10:10:14.089Z,100397.38
2023-04-18T10:13:19.146Z,100369.16
2023-04-18T10:16:21.482Z,100369.72
2023-04-18T10:19:25.107Z,100360.47
2023-04-18T10:22:33.747Z,100367.31
2023-04-18T10:25:41.533Z,100376.19
2023-04-18T10:29:02.743Z,100379.59
2023-04-18T10:32:11.645Z,100362.06
2023-04-18T10:35:13.531Z,100366.34
2023-04-18T10:38:18.321Z,100364.41
2023-04-18T10:41:25.270Z,100360.22
2023-04-18T10:44:27.604Z,100353.03
2023-04-18T10:47:29.543Z,100299.75
2023-04-18T10:50:31.477Z,100341.00
2023-04-18T10:53:33.604Z,100351.94
2023-04-18T10:56:38.977Z,100332.94
2023-04-18T10:59:51.697Z,100344.44
2023-04-18T11:03:00.289Z,100321.66
2023-04-18T11:06:04.507Z,100314.72
2023-04-18T11:09:13.864Z,100308.81
2023-04-18T11:12:16.324Z,100273.91
2023-04-18T11:15:23.851Z,100313.56
2023-04-18T11:18:26.726Z,100325.28
2023-04-18T11:21:30.591Z,100293.59
2023-04-18T11:24:35.565Z,100315.72
2023-04-18T11:27:37.676Z,100327.69
2023-04-18T11:30:41.837Z,100332.13
2023-04-18T11:33:47.905Z,100304.69
2023-04-18T11:36:52.585Z,100323.41
2023-04-18T11:39:56.059Z,100308.53
2023-04-18T11:43:05.764Z,100324.53
2023-04-18T11:46:08.081Z,100313.59
2023-04-18T11:49:27.355Z,100241.41
2023-04-18T11:52:30.795Z,100248.25
2023-04-18T11:55:32.728Z,100271.91
2023-04-18T11:58:36.281Z,100251.88
2023-04-18T12:01:38.065Z,100273.12
2023-04-18T12:04:59.626Z,100256.38
2023-04-18T12:08:08.668Z,100237.06
2023-04-18T12:11:20.258Z,100242.28
2023-04-18T12:14:22.708Z,100244.56
2023-04-18T12:17:27.676Z,100258.81
2023-04-18T12:20:46.181Z,100295.56
2023-04-18T12:23:48.234Z,100283.72
2023-04-18T12:26:50.042Z,100283.69
2023-04-18T12:29:51.844Z,100258.03
2023-04-18T12:32:55.967Z,100249.22
2023-04-18T12:35:57.863Z,100273.31
2023-04-18T12:38:59.593Z,100267.37
2023-04-18T12:42:02.290Z,100273.81
2023-04-18T12:45:07.672Z,100264.97
2023-04-18T12:48:09.792Z,100263.00
2023-04-18T12:51:11.672Z,100285.44
2023-04-18T12:54:13.683Z,100254.03
2023-04-18T12:57:15.750Z,100252.09
2023-04-18T13:00:17.740Z,100245.66
2023-04-18T13:03:19.706Z,100281.66
2023-04-18T13:06:21.602Z,100269.22
2023-04-18T13:09:24.518Z,100262.66
2023-04-18T13:12:26.577Z,100243.25
2023-04-18T13:15:28.473Z,100262.75
2023-04-18T13:18:30.302Z,100263.56
2023-04-18T13:21:32.095Z,100263.06
2023-04-18T13:24:34.010Z,100271.59
2023-04-18T13:27:36.449Z,100253.25
2023-04-18T13:30:38.275Z,100246.72
2023-04-18T13:33:40.274Z,100253.50
2023-04-18T13:36:43.416Z,100247.34
2023-04-18T13:39:46.344Z,100246.72
2023-04-18T13:42:48.712Z,100242.81
2023-04-18T13:45:50.748Z,100262.78
2023-04-18T13:48:52.760Z,100287.59
2023-04-18T13:51:59.549Z,100239.59
2023-04-18T13:55:01.832Z,100244.37
2023-04-18T13:58:03.824Z,100234.03
2023-04-18T14:01:06.070Z,100224.94
2023-04-18T14:04:08.090Z,100222.97
2023-04-18T14:07:10.102Z,100252.47
2023-04-18T14:10:12.081Z,100242.97
2023-04-18T14:13:13.993Z,100244.63
2023-04-18T14:16:15.799Z,100251.53
2023-04-18T14:19:18.183Z,100243.75
2023-04-18T14:22:19.904Z,100243.34
2023-04-18T14:25:22.248Z,100252.84
2023-04-18T14:28:25.129Z,100244.59
2023-04-18T14:31:28.180Z,100253.50
2023-04-18T14:34:31.220Z,100244.00
2023-04-18T14:37:35.583Z,100248.81
2023-04-18T14:40:37.600Z,100262.31
2023-04-18T14:43:39.412Z,100265.56
2023-04-18T14:46:43.882Z,100259.94
2023-04-18T14:49:46.126Z,100299.94
2023-04-18T14:52:47.924Z,100283.53
2023-04-18T14:55:50.476Z,100294.53
2023-04-18T14:58:52.574Z,100308.53
2023-04-18T15:01:54.765Z,100290.41
2023-04-18T15:04:56.713Z,100304.38
2023-04-18T15:07:58.587Z,100325.19
2023-04-18T15:11:01.151Z,100323.06
2023-04-18T15:14:03.342Z,100310.75
2023-04-18T15:17:05.716Z,100299.13
2023-04-18T15:20:08.546Z,100294.69
2023-04-18T15:23:13.692Z,100305.03
2023-04-18T15:26:15.933Z,100339.06
2023-04-18T15:29:18.096Z,100298.84
2023-04-18T15:32:20.156Z,100292.44
2023-04-18T15:35:22.007Z,100315.81
2023-04-18T15:38:23.811Z,100304.94
2023-04-18T15:41:26.582Z,100315.63
2023-04-18T15:44:29.164Z,100314.06
2023-04-18T15:47:33.902Z,100315.31
2023-04-18T15:50:36.546Z,100305.78
2023-04-18T15:53:38.388Z,100305.06
2023-04-18T15:56:42.269Z,100311.22
2023-04-18T15:59:48.403Z,100299.94
2023-04-18T16:02:50.792Z,100312.34
2023-04-18T16:05:52.638Z,100319.97
2023-04-18T16:08:54.813Z,100326.47
2023-04-18T16:11:57.464Z,100321.06
2023-04-18T16:14:59.411Z,100326.94
2023-04-18T16:18:01.931Z,100354.69
2023-04-18T16:21:03.973Z,100350.62
2023-04-18T16:24:06.389Z,100362.47
2023-04-18T16:27:08.231Z,100387.59
2023-04-18T16:30:10.449Z,100413.00
2023-04-18T16:33:14.108Z,100422.38
2023-04-18T16:36:17.427Z,100413.22
2023-04-18T16:39:19.445Z,100428.16
2023-04-18T16:42:21.574Z,100433.19
2023-04-18T16:45:23.573Z,100416.37
2023-04-18T16:48:28.199Z,100413.37
2023-04-18T16:51:31.275Z,100424.72
2023-04-18T16:54:33.064Z,100431.94
2023-04-18T16:57:34.995Z,100448.94
2023-04-18T17:00:38.376Z,100445.34
2023-04-18T17:03:41.144Z,100452.94
2023-04-18T17:06:43.798Z,100453.63
2023-04-18T17:09:45.973Z,100463.84
2023-04-18T17:12:49.882Z,100460.41
2023-04-18T17:15:52.520Z,100465.62
2023-04-18T17:18:54.570Z,100467.16
2023-04-18T17:21:56.440Z,100466.91
2023-04-18T17:24:58.223Z,100479.94
2023-04-18T17:28:02.222Z,100479.03
2023-04-18T17:31:04.446Z,100483.44
2023-04-18T17:34:07.047Z,100491.22
2023-04-18T17:37:09.048Z,100501.94
2023-04-18T17:40:11.995Z,100506.97
2023-04-18T17:43:15.150Z,100510.56
2023-04-18T17:46:17.362Z,100516.47
2023-04-18T17:49:19.512Z,100522.38
2023-04-18T17:52:21.912Z,100528.81
2023-04-18T17:55:24.234Z,100534.72
2023-04-18T17:58:26.750Z,100535.56
2023-04-18T18:01:30.418Z,100540.50
2023-04-18T18:04:32.703Z,100554.25
2023-04-18T18:07:37.435Z,100557.81
2023-04-18T18:10:48.670Z,100552.53
2023-04-18T18:13:56.652Z,100559.37
2023-04-18T18:16:58.953Z,100568.22
2023-04-18T18:20:01.211Z,100575.81
2023-04-18T18:23:03.679Z,100570.56
2023-04-18T18:26:09.940Z,100568.50
2023-04-18T18:29:12.609Z,100600.13
2023-04-18T18:32:15.006Z,100599.50
2023-04-18T18:35:17.176Z,100614.66
2023-04-18T18:38:20.101Z,100603.13
2023-04-18T18:41:22.696Z,100607.53
2023-04-18T18:44:27.315Z,100644.94
2023-04-18T18:47:30.590Z,100665.16
2023-04-18T18:50:33.730Z,100653.16
2023-04-18T18:53:38.404Z,100631.19
2023-04-18T18:56:44.247Z,100628.03
2023-04-18T18:59:46.760Z,100615.41
2023-04-18T19:02:48.973Z,100621.75
2023-04-18T19:05:51.202Z,100638.69
2023-04-18T19:08:53.035Z,100634.91
2023-04-18T19:11:58.573Z,100634.69
2023-04-18T19:15:00.761Z,100637.37
2023-04-18T19:18:02.888Z,100630.50
2023-04-18T19:21:05.108Z,100629.53
2023-04-18T19:24:07.512Z,100630.59
2023-04-18T19:27:09.401Z,100628.25
2023-04-18T19:30:12.036Z,100626.06
2023-04-18T19:33:14.377Z,100629.00
2023-04-18T19:36:16.460Z,100619.94
2023-04-18T19:39:19.158Z,100617.75
2023-04-18T19:42:21.282Z,100617.88
2023-04-18T19:45:24.688Z,100623.28
2023-04-18T19:48:27.182Z,100615.81
2023-04-18T19:51:29.322Z,100611.41
2023-04-18T19:54:33.285Z,100616.56
2023-04-18T19:57:39.602Z,100620.56
2023-04-18T20:00:42.606Z,100600.50
2023-04-18T20:03:45.074Z,100586.91
2023-04-18T20:06:47.586Z,100580.66
2023-04-18T20:09:54.672Z,100572.91
2023-04-18T20:12:56.832Z,100541.81
2023-04-18T20:15:59.200Z,100555.41
2023-04-18T20:19:01.890Z,100559.72
2023-04-18T20:22:03.815Z,100558.13
2023-04-18T20:25:06.706Z,100570.00
2023-04-18T20:28:09.553Z,100565.81
2023-04-18T20:31:12.242Z,100569.69
2023-04-18T20:34:14.885Z,100565.38
2023-04-18T20:37:19.878Z,100588.16
2023-04-18T20:40:22.514Z,100596.56
2023-04-18T20:43:24.941Z,100576.63
2023-04-18T20:46:26.850Z,100587.31
2023-04-18T20:49:30.961Z,100579.75
2023-04-18T20:52:33.177Z,100585.78
2023-04-18T20:55:34.971Z,100591.62
2023-04-18T20:58:38.066Z,100591.00
2023-04-18T21:01:40.166Z,100569.75
2023-04-18T21:04:42.156Z,100595.31
2023-04-18T21:07:45.293Z,100574.50
2023-04-18T21:10:47.725Z,100581.94
2023-04-18T21:13:49.914Z,100592.00
2023-04-18T21:16:51.677Z,100549.81
2023-04-18T21:19:53.545Z,100585.84
2023-04-18T21:22:55.442Z,100591.47
2023-04-18T21:25:57.322Z,100589.75
2023-04-18T21:29:00.837Z,100594.38
2023-04-18T21:32:02.944Z,100599.44
2023-04-18T21:35:05.910Z,100604.62
2023-04-18T21:38:07.758Z,100600.13
2023-04-18T21:41:09.820Z,100606.37
2023-04-18T21:44:11.956Z,100607.13
2023-04-18T21:47:13.754Z,100606.13
2023-04-18T21:50:15.921Z,100613.50
2023-04-18T21:53:17.772Z,100617.03
2023-04-18T21:56:19.524Z,100604.84
2023-04-18T21:59:21.596Z,100611.19
2023-04-18T22:02:25.126Z,100603.31
2023-04-18T22:05:27.936Z,100606.91
2023-04-18T22:08:31.042Z,100596.34
2023-04-18T22:11:33.388Z,100601.97
2023-04-18T22:14:35.315Z,100593.66
2023-04-18T22:17:38.067Z,100589.97
2023-04-18T22:20:41.520Z,100587.50
2023-04-18T22:23:43.635Z,100595.81
2023-04-18T22:26:45.515Z,100603.44
2023-04-18T22:29:48.038Z,100602.06
2023-04-18T22:32:50.021Z,100593.97
2023-04-18T22:35:52.439Z,100592.78
2023-04-18T22:38:54.276Z,100586.53
2023-04-18T22:41:56.445Z,100582.97
2023-04-18T22:44:58.592Z,100580.50
2023-04-18T22:48:01.032Z,100572.22
2023-04-18T22:51:03.350Z,100574.16
2023-04-18T22:54:05.580Z,100576.97
2023-04-18T22:57:07.630Z,100560.19
2023-04-18T23:00:10.222Z,100558.34
2023-04-18T23:03:12.388Z,100549.41
2023-04-18T23:06:14.325Z,100548.87
2023-04-18T23:09:19.714Z,100531.72
2023-04-18T23:12:22.008Z,100532.09
2023-04-18T23:15:24.604Z,100524.87
2023-04-18T23:18:29.912Z,100515.81
2023-04-18T23:21:32.290Z,100509.47
2023-04-18T23:24:34.310Z,100515.72
2023-04-18T23:27:36.150Z,100482.41
2023-04-18T23:30:37.955Z,100498.47
2023-04-18T23:33:39.700Z,100486.94
2023-04-18T23:36:42.354Z,100487.81
2023-04-18T23:39:44.210Z,100476.19
2023-04-18T23:42:47.180Z,100485.34
2023-04-18T23:45:48.976Z,100472.97
2023-04-18T23:48:52.153Z,100477.25
2023-04-18T23:51:54.278Z,100468.44
2023-04-18T23:54:59.701Z,100466.94
2023-04-18T23:58:01.420Z,100457.59
